CST,Max TemperatureF,Mean TemperatureF,Min TemperatureF,Max Dew PointF,MeanDew PointF,Min DewpointF,Max Humidity, Mean Humidity, Min Humidity, Max Sea Level PressureIn, Mean Sea Level PressureIn, Min Sea Level PressureIn, Max VisibilityMiles, Mean VisibilityMiles, Min VisibilityMiles, Max Wind SpeedMPH, Mean Wind SpeedMPH, Max Gust SpeedMPH,PrecipitationIn, CloudCover, Events, WindDirDegrees
2012-11-1,86,67,49,48,44,38,79,52,19,30.01,29.94,29.88,10,10,10,13,3,18,0.00,0,,240
2012-11-2,84,70,55,56,49,43,67,52,29,29.94,29.87,29.80,10,10,10,17,7,26,0.00,0,,221
2012-11-3,67,58,49,47,39,36,65,51,33,30.15,30.07,29.91,10,10,7,18,13,21,0.00,0,,18
2012-11-4,70,57,45,39,36,32,71,48,25,30.20,30.12,30.05,10,5,2,10,5,,0.00,1,,24
2012-11-5,70,58,44,41,36,31,74,50,25,30.12,30.08,30.05,10,9,2,25,6,32,0.00,2,,358
2012-11-6,76,58,39,40,38,34,82,54,26,30.14,30.11,30.03,10,10,10,14,4,,0.00,0,,329
2012-11-7,71,56,40,39,36,33,89,50,26,30.20,30.10,30.01,10,10,10,10,5,,0.00,0,,131
2012-11-8,80,64,49,55,47,35,64,52,42,30.00,29.91,29.82,10,10,10,22,11,28,0.00,0,,166
2012-11-9,81,68,56,61,56,49,89,65,44,29.90,29.85,29.75,10,10,10,23,13,31,0.00,1,,175
2012-11-10,78,69,60,60,57,54,88,69,49,29.87,29.78,29.67,10,10,10,25,13,38,0.00,3,,169
2012-11-11,71,53,34,63,48,26,94,80,62,30.31,29.86,29.66,10,9,4,23,13,28,0.58,6,Rain-Thunderstorm,2
2012-11-12,53,40,28,27,24,19,82,54,29,30.53,30.46,30.34,10,10,10,8,4,,0.00,0,,204
2012-11-13,57,44,30,28,26,23,82,54,27,30.49,30.41,30.29,10,10,10,15,4,18,0.00,1,,175
2012-11-14,62,47,32,29,27,26,78,51,24,30.39,30.31,30.24,10,10,10,14,7,,0.00,0,,179
2012-11-15,61,48,34,43,34,28,79,64,49,30.34,30.27,30.20,10,10,10,9,4,,0.00,2,,135
2012-11-16,61,52,43,37,33,25,76,52,25,30.41,30.36,30.32,10,10,10,7,2,,0.00,4,,126
2012-11-17,63,50,37,34,31,28,80,52,29,30.39,30.30,30.23,10,10,10,15,4,,0.00,0,,163
2012-11-18,67,56,45,43,38,32,63,50,38,30.22,30.15,30.09,10,10,10,21,11,29,0.00,6,Rain,165
2012-11-19,73,62,51,54,50,41,92,67,50,30.13,30.10,30.05,10,10,10,17,8,,0.00,2,,168
2012-11-20,76,60,45,56,48,45,100,94,39,30.23,30.17,30.11,10,3,0,9,7,,0.00,0,Fog,16
2012-11-21,78,62,45,53,48,44,93,65,31,30.24,30.14,30.02,10,10,10,18,7,25,0.00,1,,166
2012-11-22,77,67,57,57,51,39,84,63,42,30.17,29.99,29.89,10,10,10,30,12,37,0.00,2,,180
2012-11-23,59,48,37,37,26,21,60,46,28,30.51,30.43,30.19,10,7,2,28,16,34,0.00,0,,7
2012-11-24,62,46,29,23,22,19,74,45,19,30.45,30.28,30.01,10,8,1,16,6,23,0.00,0,,212
2012-11-25,70,54,37,37,31,22,66,47,28,29.98,29.86,29.78,10,10,10,14,8,,0.00,0,,205
2012-11-26,54,46,38,35,31,22,72,57,42,30.35,30.06,29.79,10,10,10,30,16,36,0.00,0,,10
2012-11-27,51,40,30,28,26,25,80,61,38,30.48,30.38,30.30,10,10,10,16,11,,0.00,0,,124
2012-11-28,65,48,30,40,34,27,90,64,35,30.36,30.27,30.17,10,10,10,16,5,24,0.02,0,,159
2012-11-29,69,52,36,46,41,32,88,65,43,30.16,30.08,29.98,10,10,10,18,7,24,0.00,0,,164
2012-11-30,71,58,46,56,49,44,100,86,52,30.05,30.00,29.93,10,6,0,15,7,,0.00,0,Fog,161